ADDS METAR Data INFO
IDs: Format: Raw Decoded Include TAF

Data at: 0308 UTC 16 Aug 2018

PANA 160256Z AUTO 00000KT 10SM BKN060 OVC090 14/08 A2991 RMK AO2 SLP129 60000 T01440083 56001
PANA 160156Z AUTO 00000KT 10SM BKN055 OVC075 14/09 A2991 RMK AO2 RAB0057E15 SLP129 P0000 T01390089
PANA 160056Z AUTO 07006KT 10SM FEW044 OVC055 14/08 A2991 RMK AO2 SLP127 T01390078
PANA 152356Z AUTO 06005KT 10SM OVC050 14/08 A2992 RMK AO2 SLP129 T01390078 10150 20083 50000
PANA 152256Z AUTO 07005KT 10SM BKN034 OVC065 14/08 A2992 RMK AO2 SLP130 T01390078
PANA 152205Z AUTO VRB04KT 10SM BKN028 BKN033 14/08 A2992 RMK AO2
PANA 152156Z AUTO 04005KT 10SM BKN030 OVC037 13/08 A2992 RMK AO2 SLP131 T01330078
PANA 152146Z AUTO VRB03KT 10SM SCT028 BKN035 13/08 A2992 RMK AO2
PANA 152110Z AUTO 06006KT 10SM BKN028 BKN100 12/08 A2991 RMK AO2
PANA 152056Z AUTO 06005KT 10SM FEW030 SCT100 12/07 A2991 RMK AO2 SLP129 T01170072 53005
PANA 151956Z AUTO 06007KT 10SM BKN100 12/08 A2991 RMK AO2 SLP127 T01170078
PANA 151856Z AUTO 09007KT 10SM OVC095 09/07 A2990 RMK AO2 SLP125 T00940067
PANA 151827Z AUTO 07006KT 10SM BKN030 OVC034 08/06 A2990 RMK AO2
PANA 151756Z AUTO 07006KT 10SM OVC026 08/06 A2990 RMK AO2 RAE31 SLP124 P0001 60001 T00830061 10083 20067 53010
PANA 151743Z AUTO 08007KT 10SM BKN028 OVC032 08/06 A2990 RMK AO2 RAE31 P0001
PANA 151656Z AUTO 07010KT 10SM -RA OVC035 08/06 A2989 RMK AO2 RAB46 SLP119 P0000 T00780056
PANA 151556Z AUTO 07006KT 10SM OVC033 07/06 A2988 RMK AO2 SLP116 T00720056
PANA 151356Z AUTO 07005KT 10SM FEW070 OVC110 07/07 A2987 RMK AO2 SLP115 T00720067
PANA 151256Z AUTO 09005KT 10SM BKN055 OVC120 07/06 A2987 RMK AO2 SLP115 T00720061
PANA 151156Z AUTO 12008KT 10SM OVC047 07/06 A2988 RMK AO2 SLP118 70004 T00720061 10106 20067 50001
PANA 151056Z AUTO 11007KT 10SM SCT035 BKN049 07/07 A2988 RMK AO2 SLP119 T00720067
PANA 150956Z AUTO 14005KT 10SM OVC043 08/07 A2988 RMK AO2 SLP118 T00780072
PANA 150856Z AUTO 18005KT 10SM BKN045 09/07 A2988 RMK AO2 SLP117 T00890072 401280083 53005
PANA 150756Z AUTO 16006KT 10SM BKN045 09/07 A2987 RMK AO2 SLP114 T00890072
PANA 150656Z AUTO 18007KT 10SM BKN047 09/07 A2987 RMK AO2 SLP113 T00940072
PANA 150556Z AUTO 20009KT 10SM OVC049 11/07 A2986 RMK AO2 SLP112 60000 T01060072 10128 20106 52000
PANA 150456Z AUTO 20011KT 10SM FEW021 OVC049 11/07 A2986 RMK AO2 SLP112 T01060072
PANA 150356Z AUTO 21012KT 10SM SCT042 OVC049 11/08 A2986 RMK AO2 SLP112 T01110078
PANA 150304Z AUTO 22011KT 8SM SCT017 SCT025 OVC038 11/08 A2987 RMK AO2
PANA 150256Z AUTO 22011G17KT 10SM SCT019 BKN025 OVC040 12/08 A2986 RMK AO2 SLP112 60000 T01170083 53001
PANA 150056Z AUTO 23014G21KT 10SM FEW024 OVC042 12/07 A2986 RMK AO2 SLP111 T01220072
PANA 142356Z AUTO 23013G22KT 10SM OVC037 12/08 A2986 RMK AO2 SLP110 T01220078 10122 20094 51004
PANA 142314Z AUTO 24015G22KT 10SM OVC031 12/07 A2985 RMK AO2
PANA 142256Z AUTO 23018G23KT 10SM OVC029 12/07 A2986 RMK AO2 SLP110 T01220072
PANA 141956Z AUTO 24018G24KT 10SM OVC019 11/07 A2983 RMK AO2 PK WND 24026/1944 SLP100 T01060072
PANA 141856Z AUTO 23019G24KT 10SM OVC015 09/07 A2982 RMK AO2 SLP096 T00940072
PANA 141846Z AUTO 24018G24KT 10SM OVC015 09/07 A2981 RMK AO2
PANA 141756Z AUTO 24015G23KT 10SM OVC011 09/08 A2980 RMK AO2 PK WND 25026/1741 SLP091 60004 T00940078 10100 20089 51016
PANA 141556Z AUTO 24016G28KT 10SM OVC013 09/08 A2977 RMK AO2 PK WND 25028/1547 SLP082 T00890078